createdAt,value
2018-04-10T00:00:34.844Z,15.23
2018-04-10T00:03:02.411Z,15.00
2018-04-10T00:05:29.960Z,15.60
2018-04-10T00:07:57.523Z,15.17
2018-04-10T00:10:25.986Z,15.97
2018-04-10T00:12:54.320Z,16.17
2018-04-10T00:15:21.856Z,15.93
2018-04-10T00:17:49.422Z,16.13
2018-04-10T00:20:16.974Z,16.30
2018-04-10T00:22:45.545Z,17.13
2018-04-10T00:25:13.103Z,16.03
2018-04-10T00:27:40.655Z,17.47
2018-04-10T00:30:08.224Z,17.10
2018-04-10T00:32:35.781Z,16.63
2018-04-10T00:35:03.322Z,17.60
2018-04-10T00:37:31.655Z,16.67
2018-04-10T00:39:59.220Z,17.30
2018-04-10T00:42:27.555Z,16.93
2018-04-10T00:44:55.091Z,18.10
2018-04-10T00:47:22.644Z,17.70
2018-04-10T00:49:50.174Z,17.00
2018-04-10T00:52:17.745Z,17.13
2018-04-10T00:54:45.346Z,16.87
2018-04-10T00:57:13.675Z,16.40
2018-04-10T00:59:41.219Z,17.77
2018-04-10T01:02:08.783Z,17.40
2018-04-10T01:04:36.316Z,16.87
2018-04-10T01:07:03.878Z,16.57
2018-04-10T01:09:31.417Z,16.87
2018-04-10T01:11:59.761Z,16.70
2018-04-10T01:14:27.308Z,18.30
2018-04-10T01:16:54.852Z,17.13
2018-04-10T01:19:22.443Z,18.87
2018-04-10T01:21:50.078Z,16.57
2018-04-10T01:24:17.648Z,18.50
2018-04-10T01:26:45.207Z,17.20
2018-04-10T01:29:12.764Z,18.97
2018-04-10T01:31:40.301Z,17.00
2018-04-10T01:34:07.863Z,18.70
2018-04-10T01:36:35.421Z,17.87
2018-04-10T01:39:02.989Z,18.37
2018-04-10T01:41:30.534Z,19.13
2018-04-10T01:43:58.097Z,18.87
2018-04-10T01:46:25.679Z,18.77
2018-04-10T01:48:53.251Z,18.87
2018-04-10T01:51:20.831Z,18.17
2018-04-10T01:53:48.379Z,19.90
2018-04-10T01:56:15.919Z,19.57
2018-04-10T01:58:43.479Z,21.07
2018-04-10T02:01:11.016Z,20.87
2018-04-10T02:03:38.588Z,20.77
2018-04-10T02:06:06.134Z,20.37
2018-04-10T02:08:34.446Z,19.93
2018-04-10T02:11:01.979Z,19.97
2018-04-10T02:13:29.542Z,20.87
2018-04-10T02:15:57.078Z,20.30
2018-04-10T02:18:25.428Z,21.13
2018-04-10T02:20:52.964Z,20.37
2018-04-10T02:23:20.534Z,22.40
2018-04-10T02:25:48.074Z,21.53
2018-04-10T02:28:15.652Z,22.10
2018-04-10T02:30:43.188Z,22.03
2018-04-10T02:33:10.752Z,21.90
2018-04-10T02:35:38.302Z,21.70
2018-04-10T02:38:05.878Z,21.87
2018-04-10T02:40:33.455Z,23.10
2018-04-10T02:43:00.988Z,21.40
2018-04-10T02:45:28.611Z,22.23
2018-04-10T02:47:56.171Z,21.73
2018-04-10T02:50:23.733Z,21.83
2018-04-10T02:52:51.289Z,22.53
2018-04-10T02:55:18.835Z,23.33
2018-04-10T02:57:46.393Z,22.03
2018-04-10T03:00:14.701Z,21.93
2018-04-10T03:02:43.032Z,23.23
2018-04-10T03:05:10.679Z,22.27
2018-04-10T03:07:38.252Z,22.53
2018-04-10T03:10:05.802Z,22.37
2018-04-10T03:12:33.390Z,23.30
2018-04-10T03:15:00.940Z,21.77
2018-04-10T03:17:28.582Z,22.43
2018-04-10T03:19:56.184Z,23.47
2018-04-10T03:22:23.742Z,22.83
2018-04-10T03:24:51.302Z,23.03
2018-04-10T03:27:18.860Z,21.33
2018-04-10T03:29:46.400Z,22.10
2018-04-10T03:32:13.960Z,22.60
2018-04-10T03:34:41.496Z,21.93
2018-04-10T03:37:09.065Z,22.30
2018-04-10T03:39:36.727Z,21.47
2018-04-10T03:42:04.275Z,21.20
2018-04-10T03:44:31.855Z,21.43
2018-04-10T03:46:59.403Z,21.47
2018-04-10T03:49:26.962Z,20.63
2018-04-10T03:51:54.524Z,21.00
2018-04-10T03:54:22.095Z,21.57
2018-04-10T03:56:49.669Z,20.70
2018-04-10T03:59:17.223Z,21.70
2018-04-10T04:01:44.811Z,21.33
2018-04-10T04:04:12.354Z,22.10
2018-04-10T04:06:39.933Z,21.33
2018-04-10T04:09:07.554Z,22.03
2018-04-10T04:11:35.096Z,21.87
2018-04-10T04:14:02.668Z,20.20
2018-04-10T04:16:42.054Z,21.20
2018-04-10T04:19:21.408Z,21.27
2018-04-10T04:24:49.216Z,20.57
2018-04-10T04:27:16.800Z,22.30
2018-04-10T04:29:44.355Z,21.00
2018-04-10T04:32:11.919Z,19.40
2018-04-10T04:34:39.488Z,21.27
2018-04-10T04:37:07.029Z,21.87
2018-04-10T04:39:34.580Z,21.40
2018-04-10T04:42:02.132Z,21.17
2018-04-10T04:44:29.717Z,20.50
2018-04-10T04:46:57.270Z,20.73
2018-04-10T04:49:24.868Z,21.53
2018-04-10T04:51:52.413Z,20.77
2018-04-10T04:54:19.992Z,20.90
2018-04-10T04:56:47.539Z,21.30
2018-04-10T04:59:15.102Z,20.53
2018-04-10T05:01:42.739Z,19.90
2018-04-10T05:04:10.325Z,20.93
2018-04-10T05:06:37.894Z,19.93
2018-04-10T05:09:06.367Z,19.97
2018-04-10T05:11:33.916Z,19.43
2018-04-10T05:14:01.475Z,20.37
2018-04-10T05:16:29.796Z,19.80
2018-04-10T05:18:58.128Z,19.00
2018-04-10T05:21:25.684Z,20.57
2018-04-10T05:23:53.239Z,17.67
2018-04-10T05:26:20.813Z,17.83
2018-04-10T05:28:48.378Z,17.37
2018-04-10T05:31:15.925Z,19.23
2018-04-10T05:33:43.496Z,17.23
2018-04-10T05:36:11.056Z,18.77
2018-04-10T05:38:38.645Z,18.47
2018-04-10T05:41:06.262Z,17.77
2018-04-10T05:43:33.824Z,16.33
2018-04-10T05:46:01.383Z,16.83
2018-04-10T05:48:28.933Z,16.57
2018-04-10T05:50:56.936Z,15.50
2018-04-10T05:53:24.913Z,16.93
2018-04-10T05:55:52.466Z,17.10
2018-04-10T05:58:20.036Z,17.23
2018-04-10T06:00:47.605Z,16.10
2018-04-10T06:03:15.147Z,16.50
2018-04-10T06:05:42.711Z,16.07
2018-04-10T06:08:10.363Z,16.03
2018-04-10T06:10:37.927Z,16.27
2018-04-10T06:13:05.570Z,16.03
2018-04-10T06:15:33.231Z,16.50
2018-04-10T06:18:00.794Z,15.83
2018-04-10T06:20:28.466Z,15.50
2018-04-10T06:22:56.025Z,16.27
2018-04-10T06:25:23.604Z,16.07
2018-04-10T06:27:51.157Z,16.17
2018-04-10T06:30:18.730Z,15.18
2018-04-10T06:32:46.365Z,15.63
2018-04-10T06:35:13.935Z,16.30
2018-04-10T06:37:41.589Z,16.00
2018-04-10T06:40:09.165Z,15.48
2018-04-10T06:42:36.815Z,16.17
2018-04-10T06:45:04.396Z,16.03
2018-04-10T06:47:31.959Z,14.45
2018-04-10T06:49:59.565Z,15.95
2018-04-10T06:52:27.113Z,15.88
2018-04-10T06:54:55.537Z,14.90
2018-04-10T06:57:23.086Z,15.32
2018-04-10T06:59:50.640Z,16.12
2018-04-10T07:02:18.206Z,15.18
2018-04-10T07:04:45.772Z,15.52
2018-04-10T07:07:13.336Z,15.15
2018-04-10T07:09:40.909Z,15.82
2018-04-10T07:12:08.553Z,15.45
2018-04-10T07:14:36.098Z,15.63
2018-04-10T07:17:03.652Z,15.30
2018-04-10T07:19:31.190Z,14.45
2018-04-10T07:21:59.540Z,15.23
2018-04-10T07:24:27.095Z,15.68
2018-04-10T07:26:54.686Z,14.50
2018-04-10T07:29:22.996Z,15.13
2018-04-10T07:31:50.598Z,15.40
2018-04-10T07:34:18.144Z,16.17
2018-04-10T07:36:46.493Z,15.18
2018-04-10T07:39:14.040Z,14.70
2018-04-10T07:41:41.611Z,15.57
2018-04-10T07:44:09.147Z,16.02
2018-04-10T07:46:37.483Z,14.77
2018-04-10T07:49:05.125Z,15.93
2018-04-10T07:51:34.894Z,15.70
2018-04-10T07:54:03.204Z,15.25
2018-04-10T07:56:30.774Z,15.73
2018-04-10T07:58:58.321Z,14.93
2018-04-10T08:01:25.876Z,15.02
2018-04-10T08:03:53.423Z,15.88
2018-04-10T08:06:21.756Z,15.40
2018-04-10T08:08:49.316Z,15.45
2018-04-10T08:11:18.778Z,16.17
2018-04-10T08:13:46.338Z,15.88
2018-04-10T08:16:13.901Z,16.37
2018-04-10T08:18:41.452Z,16.45
2018-04-10T08:21:09.795Z,15.75
2018-04-10T08:23:37.424Z,16.77
2018-04-10T08:26:04.977Z,15.35
2018-04-10T08:28:32.646Z,16.12
2018-04-10T08:31:00.189Z,15.98
2018-04-10T08:33:27.806Z,14.55
2018-04-10T08:35:55.353Z,16.00
2018-04-10T08:38:22.916Z,15.13
2018-04-10T08:40:50.462Z,14.38
2018-04-10T08:43:18.028Z,16.02
2018-04-10T08:45:45.578Z,15.57
2018-04-10T08:48:13.145Z,15.55
2018-04-10T08:50:40.681Z,16.05
2018-04-10T08:53:08.245Z,16.92
2018-04-10T08:55:35.792Z,15.60
2018-04-10T08:58:03.368Z,15.18
2018-04-10T09:00:30.914Z,16.02
2018-04-10T09:02:58.471Z,15.35
2018-04-10T09:05:26.034Z,14.68
2018-04-10T09:07:53.604Z,15.25
2018-04-10T09:10:21.167Z,15.32
2018-04-10T09:12:48.733Z,14.18
2018-04-10T09:15:16.282Z,14.18
2018-04-10T09:17:43.840Z,15.07
2018-04-10T09:20:11.377Z,13.95
2018-04-10T09:22:38.950Z,15.02
2018-04-10T09:25:06.493Z,14.40
2018-04-10T09:27:34.849Z,14.05
2018-04-10T09:30:02.405Z,13.88
2018-04-10T09:32:29.976Z,14.75
2018-04-10T09:34:57.521Z,14.20
2018-04-10T09:37:25.092Z,14.70
2018-04-10T09:39:52.636Z,14.32
2018-04-10T09:42:20.200Z,14.02
2018-04-10T09:44:47.810Z,14.23
2018-04-10T09:47:15.354Z,13.43
2018-04-10T09:49:43.730Z,13.52
2018-04-10T09:52:12.049Z,14.77
2018-04-10T09:54:39.623Z,13.62
2018-04-10T09:57:07.181Z,13.00
2018-04-10T09:59:34.757Z,13.48
2018-04-10T10:02:02.393Z,13.35
2018-04-10T10:04:29.957Z,13.15
2018-04-10T10:06:57.495Z,14.07
2018-04-10T10:09:25.072Z,12.32
2018-04-10T10:11:52.618Z,12.25
2018-04-10T10:14:20.223Z,12.20
2018-04-10T10:16:47.768Z,11.88
2018-04-10T10:19:15.326Z,12.50
2018-04-10T10:21:42.871Z,13.25
2018-04-10T10:24:10.438Z,11.50
2018-04-10T10:26:38.025Z,11.68
2018-04-10T10:29:05.593Z,12.02
2018-04-10T10:31:33.157Z,11.85
2018-04-10T10:34:00.749Z,11.88
2018-04-10T10:36:29.047Z,12.52
2018-04-10T10:38:56.623Z,12.15
2018-04-10T10:41:24.277Z,11.50
2018-04-10T10:43:51.835Z,12.13
2018-04-10T10:46:19.375Z,12.55
2018-04-10T10:48:46.932Z,13.13
2018-04-10T10:51:14.474Z,13.45
2018-04-10T10:53:42.812Z,12.65
2018-04-10T10:56:10.357Z,12.85
2018-04-10T10:58:37.947Z,11.75
2018-04-10T11:01:05.516Z,11.45
2018-04-10T11:03:33.113Z,11.07
2018-04-10T11:06:00.697Z,11.20
2018-04-10T11:08:28.226Z,11.30
2018-04-10T11:10:56.548Z,11.40
2018-04-10T11:13:24.082Z,11.38
2018-04-10T11:15:51.757Z,12.02
2018-04-10T11:18:19.303Z,11.90
2018-04-10T11:20:46.875Z,11.15
2018-04-10T11:23:14.419Z,11.05
2018-04-10T11:25:41.984Z,11.45
2018-04-10T11:28:09.522Z,10.77
2018-04-10T11:30:37.841Z,11.50
2018-04-10T11:33:05.403Z,11.05
2018-04-10T11:35:32.982Z,11.82
2018-04-10T11:38:00.517Z,11.60
2018-04-10T11:40:28.078Z,10.15
2018-04-10T11:42:55.619Z,9.57
2018-04-10T11:45:23.204Z,9.82
2018-04-10T11:47:50.753Z,9.55
2018-04-10T11:50:18.311Z,10.00
2018-04-10T11:52:45.840Z,9.25
2018-04-10T11:55:14.164Z,10.05
2018-04-10T11:57:41.716Z,10.23
2018-04-10T12:00:09.288Z,9.80
2018-04-10T12:02:36.824Z,8.32
2018-04-10T12:05:04.385Z,9.07
2018-04-10T12:07:31.917Z,9.88
2018-04-10T12:10:00.341Z,9.38
2018-04-10T12:12:27.871Z,8.48
2018-04-10T12:14:55.431Z,9.18
2018-04-10T12:17:22.971Z,10.38
2018-04-10T12:19:51.311Z,9.93
2018-04-10T12:22:18.852Z,8.10
2018-04-10T12:24:46.442Z,6.35
2018-04-10T12:27:14.749Z,6.50
2018-04-10T12:29:43.056Z,7.35
2018-04-10T12:32:10.621Z,7.37
2018-04-10T12:34:38.192Z,6.75
2018-04-10T12:37:05.754Z,5.87
2018-04-10T12:39:33.309Z,6.00
2018-04-10T12:42:00.864Z,5.78
2018-04-10T12:44:28.396Z,6.15
2018-04-10T12:46:56.735Z,6.47
2018-04-10T12:49:24.297Z,6.75
2018-04-10T12:51:51.849Z,6.75
2018-04-10T12:54:19.409Z,6.72
2018-04-10T12:56:46.964Z,7.10
2018-04-10T12:59:14.511Z,7.70
2018-04-10T13:01:42.068Z,7.35
2018-04-10T13:04:09.599Z,7.40
2018-04-10T13:06:37.156Z,8.57
2018-04-10T13:09:06.248Z,7.37
2018-04-10T13:11:33.800Z,7.57
2018-04-10T13:14:01.349Z,7.22
2018-04-10T13:16:28.920Z,7.90
2018-04-10T13:18:56.448Z,8.75
2018-04-10T13:21:24.004Z,8.70
2018-04-10T13:23:51.530Z,8.20
2018-04-10T13:26:19.092Z,7.97
2018-04-10T13:28:46.626Z,9.63
2018-04-10T13:31:14.961Z,9.13
2018-04-10T13:33:42.526Z,9.45
2018-04-10T13:36:10.086Z,8.98
2018-04-10T13:38:37.624Z,9.23
2018-04-10T13:41:05.185Z,9.70
2018-04-10T13:43:32.735Z,8.65
2018-04-10T13:46:00.301Z,8.30
2018-04-10T13:48:27.959Z,8.18
2018-04-10T13:50:55.487Z,8.20
2018-04-10T13:53:23.808Z,8.00
2018-04-10T13:55:51.349Z,8.07
2018-04-10T13:58:18.960Z,8.25
2018-04-10T14:00:46.490Z,8.02
2018-04-10T14:03:14.048Z,7.53
2018-04-10T14:05:41.576Z,7.72
2018-04-10T14:08:09.916Z,7.30
2018-04-10T14:10:37.456Z,7.03
2018-04-10T14:13:05.108Z,8.10
2018-04-10T14:15:32.637Z,6.60
2018-04-10T14:18:00.957Z,6.25
2018-04-10T14:20:28.504Z,6.05
2018-04-10T14:22:56.056Z,6.70
2018-04-10T14:25:23.613Z,6.57
2018-04-10T14:27:51.175Z,6.50
2018-04-10T14:30:18.711Z,6.45
2018-04-10T14:32:47.036Z,5.87
2018-04-10T14:35:14.581Z,5.20
2018-04-10T14:37:42.164Z,7.05
2018-04-10T14:40:09.701Z,5.07
2018-04-10T14:42:37.267Z,5.78
2018-04-10T14:45:04.890Z,6.03
2018-04-10T14:47:33.238Z,6.10
2018-04-10T14:50:00.795Z,5.75
2018-04-10T14:52:28.424Z,6.20
2018-04-10T14:54:55.963Z,6.72
2018-04-10T14:57:23.535Z,5.50
2018-04-10T14:59:51.079Z,5.35
2018-04-10T15:02:18.652Z,5.60
2018-04-10T15:04:46.199Z,5.37
2018-04-10T15:07:14.524Z,5.53
2018-04-10T15:09:42.115Z,5.15
2018-04-10T15:12:09.691Z,5.82
2018-04-10T15:14:37.242Z,5.80
2018-04-10T15:17:04.823Z,5.70
2018-04-10T15:19:32.400Z,6.32
2018-04-10T15:21:59.944Z,5.55
2018-04-10T15:24:27.627Z,6.20
2018-04-10T15:26:55.163Z,6.60
2018-04-10T15:29:22.725Z,5.93
2018-04-10T15:31:50.263Z,5.43
2018-04-10T15:34:18.660Z,5.80
2018-04-10T15:36:46.163Z,5.65
2018-04-10T15:39:13.813Z,5.68
2018-04-10T15:41:41.350Z,5.15
2018-04-10T15:44:08.914Z,5.53
2018-04-10T15:46:36.451Z,5.18
2018-04-10T15:49:04.781Z,5.57
2018-04-10T15:51:32.311Z,5.68
2018-04-10T15:53:59.864Z,5.60
2018-04-10T15:56:27.423Z,5.53
2018-04-10T15:58:55.000Z,5.30
2018-04-10T16:01:22.534Z,5.28
2018-04-10T16:03:50.945Z,5.10
2018-04-10T16:06:18.489Z,4.97
2018-04-10T16:08:46.053Z,5.82
2018-04-10T16:11:13.603Z,5.22
2018-04-10T16:13:41.159Z,5.40
2018-04-10T16:16:08.700Z,5.35
2018-04-10T16:18:36.285Z,5.22
2018-04-10T16:21:03.937Z,5.45
2018-04-10T16:23:32.308Z,5.18
2018-04-10T16:26:00.664Z,5.87
2018-04-10T16:28:28.278Z,5.72
2018-04-10T16:30:55.855Z,5.18
2018-04-10T16:33:23.429Z,5.07
2018-04-10T16:35:50.981Z,5.60
2018-04-10T16:38:18.727Z,4.85
2018-04-10T16:40:46.376Z,5.62
2018-04-10T16:43:14.068Z,4.43
2018-04-10T16:45:41.624Z,5.18
2018-04-10T16:48:09.169Z,4.95
2018-04-10T16:50:36.727Z,5.05
2018-04-10T16:53:04.267Z,4.57
2018-04-10T16:55:32.631Z,4.32
2018-04-10T16:58:00.178Z,4.03
2018-04-10T17:00:27.765Z,3.95
2018-04-10T17:02:55.353Z,3.55
2018-04-10T17:05:22.912Z,2.78
2018-04-10T17:07:50.476Z,2.20
2018-04-10T17:10:18.113Z,2.47
2018-04-10T17:12:46.451Z,2.17
2018-04-10T17:15:14.022Z,2.17
2018-04-10T17:17:41.593Z,2.20
2018-04-10T17:20:09.140Z,1.80
2018-04-10T17:22:37.663Z,1.80
2018-04-10T17:25:05.215Z,1.83
2018-04-10T17:27:32.744Z,1.83
2018-04-10T17:30:00.297Z,2.00
2018-04-10T17:32:28.599Z,1.48
2018-04-10T17:34:56.188Z,1.73
2018-04-10T17:37:23.722Z,1.67
2018-04-10T17:39:51.277Z,1.83
2018-04-10T17:42:18.857Z,1.60
2018-04-10T17:44:47.186Z,1.90
2018-04-10T17:47:14.750Z,1.55
2018-04-10T17:49:42.340Z,1.40
2018-04-10T17:52:09.869Z,2.00
2018-04-10T17:54:38.202Z,2.00
2018-04-10T17:57:05.754Z,2.05
2018-04-10T17:59:40.074Z,2.00
2018-04-10T18:02:08.381Z,1.70
2018-04-10T18:04:35.945Z,2.05
2018-04-10T18:07:03.508Z,1.75
2018-04-10T18:09:31.089Z,1.70
2018-04-10T18:11:59.389Z,2.00
2018-04-10T18:14:26.926Z,1.67
2018-04-10T18:16:54.570Z,1.80
2018-04-10T18:19:22.116Z,2.35
2018-04-10T18:21:49.682Z,2.00
2018-04-10T18:24:17.220Z,6.47
2018-04-10T18:26:45.537Z,7.67
2018-04-10T18:29:13.073Z,9.50
2018-04-10T18:31:40.635Z,9.70
2018-04-10T18:34:08.168Z,9.87
2018-04-10T18:36:36.511Z,10.93
2018-04-10T18:39:04.491Z,10.77
2018-04-10T18:41:32.098Z,10.63
2018-04-10T18:44:00.387Z,10.90
2018-04-10T18:46:27.943Z,11.50
2018-04-10T18:48:55.513Z,11.43
2018-04-10T18:51:23.072Z,11.30
2018-04-10T18:53:50.734Z,11.80
2018-04-10T18:56:18.293Z,12.10
2018-04-10T18:58:45.853Z,11.43
2018-04-10T19:01:13.403Z,11.53
2018-04-10T19:03:41.181Z,11.10
2018-04-10T19:06:08.779Z,11.43
2018-04-10T19:08:36.319Z,11.57
2018-04-10T19:11:03.869Z,11.73
2018-04-10T19:13:32.411Z,11.40
2018-04-10T19:16:00.917Z,12.43
2018-04-10T19:18:28.490Z,11.70
2018-04-10T19:20:56.073Z,12.17
2018-04-10T19:23:23.605Z,11.77
2018-04-10T19:25:51.160Z,11.80
2018-04-10T19:28:18.700Z,12.60
2018-04-10T19:30:47.055Z,12.30
2018-04-10T19:33:15.377Z,12.93
2018-04-10T19:35:42.954Z,11.73
2018-04-10T19:38:10.500Z,12.10
2018-04-10T19:40:38.032Z,12.10
2018-04-10T19:43:05.624Z,12.47
2018-04-10T19:45:33.256Z,11.13
2018-04-10T19:48:00.788Z,11.53
2018-04-10T19:50:28.331Z,12.70
2018-04-10T19:52:55.933Z,12.43
2018-04-10T19:55:23.481Z,11.90
2018-04-10T19:57:51.038Z,12.00
2018-04-10T20:00:18.579Z,12.80
2018-04-10T20:02:46.128Z,12.90
2018-04-10T20:05:13.664Z,12.50
2018-04-10T20:07:41.239Z,13.10
2018-04-10T20:10:08.771Z,12.90
2018-04-10T20:12:36.335Z,12.53
2018-04-10T20:15:03.897Z,12.97
2018-04-10T20:17:31.465Z,13.63
2018-04-10T20:19:59.049Z,12.27
2018-04-10T20:22:26.617Z,12.17
2018-04-10T20:24:54.159Z,12.70
2018-04-10T20:27:21.761Z,13.37
2018-04-10T20:29:49.319Z,13.07
2018-04-10T20:32:16.889Z,13.13
2018-04-10T20:34:46.205Z,13.63
2018-04-10T20:37:14.527Z,15.07
2018-04-10T20:39:42.061Z,13.97
2018-04-10T20:42:09.622Z,13.47
2018-04-10T20:44:37.168Z,13.03
2018-04-10T20:47:05.468Z,14.00
2018-04-10T20:49:33.020Z,13.20
2018-04-10T20:52:00.561Z,13.53
2018-04-10T20:54:28.889Z,13.47
2018-04-10T20:56:57.215Z,12.77
2018-04-10T20:59:25.531Z,13.60
2018-04-10T21:01:53.068Z,14.70
2018-04-10T21:04:20.629Z,13.17
2018-04-10T21:06:48.187Z,13.47
2018-04-10T21:09:15.765Z,13.30
2018-04-10T21:11:43.296Z,13.90
2018-04-10T21:14:11.620Z,12.77
2018-04-10T21:16:39.147Z,13.93
2018-04-10T21:19:06.730Z,13.57
2018-04-10T21:21:34.266Z,13.73
2018-04-10T21:24:01.825Z,13.80
2018-04-10T21:26:29.376Z,14.30
2018-04-10T21:28:57.704Z,14.50
2018-04-10T21:31:25.272Z,13.60
2018-04-10T21:33:52.839Z,14.70
2018-04-10T21:36:20.384Z,13.87
2018-04-10T21:38:47.989Z,12.97
2018-04-10T21:41:16.307Z,13.20
2018-04-10T21:43:43.902Z,14.07
2018-04-10T21:46:11.432Z,13.70
2018-04-10T21:48:39.000Z,13.87
2018-04-10T21:51:06.541Z,13.23
2018-04-10T21:53:34.099Z,12.47
2018-04-10T21:56:01.655Z,13.23
2018-04-10T21:58:29.208Z,13.10
2018-04-10T22:00:56.749Z,15.00
2018-04-10T22:03:25.068Z,14.00
2018-04-10T22:05:52.609Z,14.07
2018-04-10T22:08:20.167Z,14.13
2018-04-10T22:10:47.699Z,13.93
2018-04-10T22:13:15.243Z,13.83
2018-04-10T22:15:42.802Z,13.13
2018-04-10T22:18:10.341Z,14.37
2018-04-10T22:20:37.888Z,14.30
2018-04-10T22:23:05.416Z,14.17
2018-04-10T22:25:34.736Z,13.90
2018-04-10T22:28:02.274Z,13.57
2018-04-10T22:30:30.634Z,15.07
2018-04-10T22:32:58.231Z,14.30
2018-04-10T22:35:25.817Z,14.40
2018-04-10T22:37:53.357Z,14.90
2018-04-10T22:40:20.921Z,13.97
2018-04-10T22:42:48.457Z,13.97
2018-04-10T22:45:16.008Z,14.67
2018-04-10T22:47:43.542Z,14.67
2018-04-10T22:50:11.864Z,13.60
2018-04-10T22:52:39.409Z,14.13
2018-04-10T22:55:06.960Z,14.40
2018-04-10T22:57:34.517Z,15.40
2018-04-10T23:00:02.846Z,14.17
2018-04-10T23:02:30.390Z,15.00
2018-04-10T23:04:57.948Z,15.23
2018-04-10T23:07:25.493Z,15.03
2018-04-10T23:09:53.053Z,15.03
2018-04-10T23:12:20.592Z,13.60
2018-04-10T23:14:48.149Z,13.80
2018-04-10T23:17:15.685Z,14.77
2018-04-10T23:19:43.242Z,14.47
2018-04-10T23:22:10.789Z,15.07
2018-04-10T23:24:38.352Z,14.60
2018-04-10T23:27:05.923Z,13.50
2018-04-10T23:29:33.509Z,14.37
2018-04-10T23:32:01.140Z,14.37
2018-04-10T23:34:28.705Z,13.63
2018-04-10T23:36:56.249Z,13.93
2018-04-10T23:39:23.789Z,14.07
2018-04-10T23:41:52.206Z,14.03
2018-04-10T23:44:19.745Z,14.70
2018-04-10T23:46:47.298Z,13.90
2018-04-10T23:49:15.600Z,13.70
2018-04-10T23:51:43.155Z,14.27
2018-04-10T23:54:10.700Z,14.03
2018-04-10T23:56:39.025Z,14.23
2018-04-10T23:59:06.561Z,14.33
